Time;durP1;ratioP1;P1;durP2;ratioP2;P2;SDS_P1;SDS_P2;PMS_P1;PMS_P2;Temp;Humidity;BMP_temperature;BMP_pressure;BME280_temperature;BME280_humidity;BME280_pressure;Samples;Min_cycle;Max_cycle;Signal;HPM_P1;HPM_P2
2023/07/02 00:01:19;;;;;;;6.33;2.60;;;17.50;99.90;;;;;;5056467;28;20625;-90
2023/07/02 00:03:44;;;;;;;8.17;2.77;;;17.50;99.90;;;;;;5057380;28;20175;-90
2023/07/02 00:06:10;;;;;;;8.20;2.97;;;17.50;99.90;;;;;;5075005;28;20175;-90
2023/07/02 00:08:35;;;;;;;4.70;2.53;;;17.50;99.90;;;;;;5056737;28;20194;-90
2023/07/02 00:11:01;;;;;;;3.23;2.60;;;17.50;99.90;;;;;;5075203;28;20175;-90
2023/07/02 00:13:26;;;;;;;8.90;3.30;;;17.40;99.90;;;;;;5056619;28;20179;-90
2023/07/02 00:15:52;;;;;;;6.07;2.90;;;17.50;99.90;;;;;;5056745;28;20189;-90
2023/07/02 00:18:17;;;;;;;6.97;3.00;;;17.60;99.90;;;;;;5057043;28;20187;-90
2023/07/02 00:20:43;;;;;;;5.87;2.93;;;17.90;99.90;;;;;;5056615;28;20206;-90
2023/07/02 00:23:09;;;;;;;5.93;2.53;;;17.50;99.90;;;;;;5057151;28;20216;-90
2023/07/02 00:25:36;;;;;;;5.03;2.97;;;17.40;99.90;;;;;;5057063;28;20175;-90
2023/07/02 00:28:02;;;;;;;6.13;3.27;;;17.40;99.90;;;;;;5057349;28;20254;-90
2023/07/02 00:30:28;;;;;;;5.30;2.90;;;17.50;99.90;;;;;;5076425;28;20191;-90
2023/07/02 00:32:53;;;;;;;5.57;2.60;;;17.50;99.90;;;;;;5060706;28;20606;-90
2023/07/02 00:35:19;;;;;;;9.00;2.97;;;17.40;99.90;;;;;;5060385;28;20171;-90
2023/07/02 00:37:44;;;;;;;7.97;3.30;;;17.60;99.90;;;;;;5060870;28;20224;-90
2023/07/02 00:40:10;;;;;;;4.87;2.90;;;17.30;99.90;;;;;;5078518;28;20556;-90
2023/07/02 00:42:36;;;;;;;8.47;3.60;;;17.30;99.90;;;;;;5060350;28;20230;-90
2023/07/02 00:45:04;;;;;;;5.43;3.00;;;17.30;99.90;;;;;;5060424;28;20208;-90
2023/07/02 00:47:35;;;;;;;7.83;2.70;;;17.30;99.90;;;;;;5059781;28;20167;-90
2023/07/02 00:50:01;;;;;;;8.77;3.60;;;17.30;99.90;;;;;;5059943;28;20186;-90
2023/07/02 00:52:27;;;;;;;8.20;3.47;;;17.50;99.90;;;;;;5060122;28;20262;-90
2023/07/02 00:54:52;;;;;;;6.37;3.17;;;17.20;99.90;;;;;;5059918;28;20236;-90
2023/07/02 00:57:18;;;;;;;9.77;3.70;;;17.30;99.90;;;;;;5059961;28;20641;-90
2023/07/02 00:59:44;;;;;;;9.80;3.53;;;17.30;99.90;;;;;;5060029;28;20243;-90
2023/07/02 01:02:10;;;;;;;4.87;2.67;;;17.20;99.90;;;;;;5060180;28;20199;-90
2023/07/02 01:04:36;;;;;;;6.27;3.50;;;17.20;99.90;;;;;;5059843;28;20175;-90
2023/07/02 01:07:08;;;;;;;9.27;3.90;;;17.20;99.90;;;;;;5059345;28;20179;-89
2023/07/02 01:09:34;;;;;;;6.43;3.93;;;17.20;99.90;;;;;;5060104;28;20191;-90
2023/07/02 01:12:03;;;;;;;6.27;3.47;;;17.30;99.90;;;;;;5059666;28;20551;-90
2023/07/02 01:14:33;;;;;;;6.90;3.60;;;17.20;99.90;;;;;;5059547;28;20652;-90
2023/07/02 01:17:01;;;;;;;7.50;3.43;;;17.20;99.90;;;;;;5059307;28;20214;-90
2023/07/02 01:19:45;;;;;;;10.33;3.60;;;17.00;99.90;;;;;;5060321;28;20766;-90
2023/07/02 01:22:12;;;;;;;9.97;4.10;;;17.00;92.70;;;;;;5059491;28;20198;-90
2023/07/02 01:24:41;;;;;;;8.03;4.13;;;17.00;87.50;;;;;;5076901;28;20167;-90
2023/07/02 01:27:07;;;;;;;9.60;3.73;;;17.10;91.80;;;;;;5059220;28;20547;-90
2023/07/02 01:29:36;;;;;;;10.57;4.30;;;17.10;81.50;;;;;;5059165;28;20186;-90
2023/07/02 01:32:02;;;;;;;7.87;4.40;;;16.90;46.10;;;;;;5059201;28;20175;-90
2023/07/02 01:34:28;;;;;;;6.70;3.70;;;17.00;81.80;;;;;;5059105;28;20174;-90
2023/07/02 01:36:54;;;;;;;9.70;4.53;;;16.90;87.10;;;;;;5059539;28;20202;-90
2023/07/02 01:39:19;;;;;;;9.37;4.57;;;16.90;99.20;;;;;;5077425;28;20194;-90
2023/07/02 01:41:52;;;;;;;13.10;4.13;;;17.00;99.90;;;;;;5076364;28;20260;-90
2023/07/02 01:44:19;;;;;;;7.37;4.00;;;16.90;99.90;;;;;;5059149;28;20225;-90
2023/07/02 01:46:48;;;;;;;7.10;4.40;;;16.80;99.90;;;;;;5058945;28;20198;-90
2023/07/02 01:49:15;;;;;;;7.43;3.97;;;16.70;99.90;;;;;;5058509;28;20197;-90
2023/07/02 01:51:44;;;;;;;10.83;5.20;;;16.70;99.90;;;;;;5059135;28;20694;-90
2023/07/02 01:54:09;;;;;;;10.73;4.60;;;16.70;99.90;;;;;;5058507;28;20674;-90
2023/07/02 01:56:35;;;;;;;9.70;4.70;;;16.70;99.90;;;;;;5076366;28;20198;-90
2023/07/02 01:59:01;;;;;;;10.63;4.67;;;16.70;99.50;;;;;;5058647;28;20190;-90
2023/07/02 02:01:26;;;;;;;12.40;5.37;;;16.60;99.50;;;;;;5058834;28;20230;-90
2023/07/02 02:03:52;;;;;;;13.73;5.27;;;16.70;87.50;;;;;;5058999;28;20171;-90
2023/07/02 02:06:18;;;;;;;9.90;5.57;;;16.60;62.40;;;;;;5076752;28;20164;-90
2023/07/02 02:08:43;;;;;;;8.90;5.10;;;16.70;67.10;;;;;;5058732;28;20191;-90
2023/07/02 02:11:09;;;;;;;14.00;5.13;;;16.60;78.10;;;;;;5058611;28;20178;-90
2023/07/02 02:13:34;;;;;;;19.60;6.33;;;16.60;92.70;;;;;;5058600;28;20179;-90
2023/07/02 02:16:00;;;;;;;11.80;5.20;;;16.50;75.30;;;;;;5058516;28;20189;-90
2023/07/02 02:18:25;;;;;;;12.93;5.87;;;17.40;72.40;;;;;;5058281;28;20568;-90
2023/07/02 02:20:51;;;;;;;13.30;6.33;;;16.50;75.80;;;;;;5058052;28;20224;-90
2023/07/02 02:23:17;;;;;;;12.57;6.30;;;16.50;50.80;;;;;;5058604;28;20177;-90
2023/07/02 02:25:42;;;;;;;14.47;6.47;;;16.60;61.60;;;;;;5076320;28;20167;-90
2023/07/02 02:28:08;;;;;;;13.97;6.27;;;16.60;44.00;;;;;;5058007;28;20540;-90
2023/07/02 02:30:33;;;;;;;17.80;8.07;;;16.50;54.70;;;;;;5057884;28;20232;-90
2023/07/02 02:32:59;;;;;;;14.13;7.00;;;16.50;42.00;;;;;;5057864;28;20551;-91
2023/07/02 02:35:24;;;;;;;15.87;6.97;;;16.50;37.10;;;;;;5058071;28;20702;-90
2023/07/02 02:37:50;;;;;;;12.43;7.20;;;16.40;50.80;;;;;;5075867;28;20182;-90
2023/07/02 02:40:16;;;;;;;16.50;7.30;;;17.90;32.90;;;;;;5057933;28;20568;-90
2023/07/02 02:42:41;;;;;;;12.07;7.13;;;16.50;61.30;;;;;;5057352;28;20244;-91
2023/07/02 02:45:07;;;;;;;20.57;7.87;;;16.70;79.70;;;;;;5058012;28;20189;-90
2023/07/02 02:47:33;;;;;;;13.13;6.83;;;16.40;70.80;;;;;;5057509;28;20185;-90
2023/07/02 02:49:59;;;;;;;15.30;7.00;;;16.30;54.00;;;;;;5056976;28;20195;-90
2023/07/02 02:52:25;;;;;;;15.83;8.00;;;16.50;76.50;;;;;;5075154;28;20570;-90
2023/07/02 02:54:52;;;;;;;15.00;8.30;;;16.40;89.60;;;;;;5057058;28;20186;-90
2023/07/02 02:57:18;;;;;;;14.17;7.53;;;16.40;89.80;;;;;;5056738;28;20182;-90
2023/07/02 02:59:44;;;;;;;15.83;7.87;;;16.40;80.90;;;;;;5057403;28;20207;-90
2023/07/02 03:02:09;;;;;;;18.17;8.93;;;16.50;35.90;;;;;;5057606;28;20207;-90
2023/07/02 03:04:35;;;;;;;18.13;8.10;;;16.40;35.20;;;;;;5057172;28;20544;-90
2023/07/02 03:07:00;;;;;;;15.03;8.00;;;16.40;53.10;;;;;;5057304;28;20261;-90
2023/07/02 03:09:26;;;;;;;19.40;8.83;;;16.40;34.50;;;;;;5057302;28;20679;-90
2023/07/02 03:11:51;;;;;;;15.90;8.37;;;16.30;21.00;;;;;;5057314;28;20259;-90
2023/07/02 03:14:17;;;;;;;21.23;8.90;;;16.50;32.50;;;;;;5057219;28;20182;-89
2023/07/02 03:16:45;;;;;;;18.97;8.83;;;16.30;34.00;;;;;;5057080;28;20178;-90
2023/07/02 03:19:10;;;;;;;15.97;9.13;;;16.30;56.00;;;;;;5074722;28;20217;-89
2023/07/02 03:21:36;;;;;;;17.30;8.87;;;16.30;66.00;;;;;;5074943;28;20195;-90
2023/07/02 03:24:02;;;;;;;18.20;9.07;;;16.50;58.10;;;;;;5056672;28;20663;-90
2023/07/02 03:26:27;;;;;;;18.17;9.37;;;16.30;81.20;;;;;;5057499;28;20696;-89
2023/07/02 03:28:53;;;;;;;14.87;9.17;;;16.40;44.40;;;;;;5056758;28;20564;-90
2023/07/02 03:31:18;;;;;;;21.17;10.67;;;16.30;57.50;;;;;;5056662;28;20175;-90
2023/07/02 03:33:44;;;;;;;22.63;10.77;;;16.40;74.80;;;;;;5075185;28;20191;-90
2023/07/02 03:36:09;;;;;;;17.90;9.07;;;16.20;91.70;;;;;;5056778;28;20240;-90
2023/07/02 03:38:35;;;;;;;19.20;10.23;;;16.30;99.80;;;;;;5057010;28;20194;-90
2023/07/02 03:41:00;;;;;;;21.10;11.23;;;16.30;90.30;;;;;;5074594;28;20206;-90
2023/07/02 03:43:26;;;;;;;21.57;9.93;;;16.20;58.70;;;;;;5056341;28;20225;-90
2023/07/02 03:45:52;;;;;;;19.53;9.80;;;16.30;84.00;;;;;;5074452;28;20274;-90
2023/07/02 03:48:18;;;;;;;24.03;11.17;;;16.20;99.90;;;;;;5056263;28;20171;-90
2023/07/02 03:50:43;;;;;;;17.60;11.00;;;16.20;99.90;;;;;;5056233;28;20171;-90
2023/07/02 03:53:09;;;;;;;19.20;9.77;;;16.20;99.90;;;;;;5056129;28;20199;-90
2023/07/02 03:55:35;;;;;;;18.67;10.53;;;16.20;99.90;;;;;;5074704;28;20167;-90
2023/07/02 03:58:00;;;;;;;23.27;11.40;;;16.20;74.80;;;;;;5055995;28;20182;-90
2023/07/02 04:00:26;;;;;;;23.20;10.23;;;16.20;58.50;;;;;;5056643;28;20247;-90
2023/07/02 04:02:52;;;;;;;18.23;10.73;;;16.20;61.60;;;;;;5056303;28;20211;-90
2023/07/02 04:05:17;;;;;;;28.37;10.87;;;16.20;77.80;;;;;;5057820;28;20641;-90
2023/07/02 04:07:43;;;;;;;21.17;11.03;;;16.20;88.20;;;;;;5060388;28;20175;-90
2023/07/02 04:10:08;;;;;;;21.07;12.13;;;16.20;95.60;;;;;;5060364;28;20290;-90
2023/07/02 04:12:34;;;;;;;23.27;13.13;;;16.20;99.90;;;;;;5060318;28;20171;-90
2023/07/02 04:15:00;;;;;;;20.60;11.50;;;16.20;99.90;;;;;;5060044;28;20633;-90
2023/07/02 04:17:25;;;;;;;23.70;12.57;;;17.20;99.90;;;;;;5060074;28;20635;-90
2023/07/02 04:19:54;;;;;;;19.90;11.50;;;16.20;99.90;;;;;;5059789;28;20692;-90
2023/07/02 04:22:20;;;;;;;24.13;12.07;;;16.20;99.90;;;;;;5059926;28;20209;-89
2023/07/02 04:24:48;;;;;;;22.57;11.53;;;16.50;99.90;;;;;;5078011;28;20245;-89
2023/07/02 04:27:17;;;;;;;21.80;12.50;;;16.40;99.90;;;;;;5059700;28;20544;-90
2023/07/02 04:29:43;;;;;;;24.70;12.33;;;16.20;99.90;;;;;;5059530;28;20194;-90
2023/07/02 04:32:09;;;;;;;24.40;12.83;;;16.20;94.80;;;;;;5059109;28;20178;-89
2023/07/02 04:34:36;;;;;;;28.03;13.13;;;16.00;99.90;;;;;;5059490;28;20678;-90
2023/07/02 04:37:03;;;;;;;26.63;13.03;;;16.20;99.90;;;;;;5059751;28;20174;-90
2023/07/02 04:39:29;;;;;;;19.93;12.10;;;16.20;99.90;;;;;;5077337;28;20766;-91
2023/07/02 04:41:54;;;;;;;25.23;12.07;;;16.50;99.90;;;;;;5059586;28;20238;-90
2023/07/02 04:44:29;;;;;;;27.67;12.83;;;16.30;99.90;;;;;;5059524;28;20179;-90
2023/07/02 04:47:02;;;;;;;26.63;13.10;;;16.50;99.90;;;;;;5059912;28;20197;-90
2023/07/02 04:49:28;;;;;;;25.97;13.63;;;16.30;99.90;;;;;;5077358;28;20266;-90
2023/07/02 04:51:53;;;;;;;26.83;13.60;;;16.30;99.90;;;;;;5059489;28;20357;-90
2023/07/02 04:54:22;;;;;;;25.60;12.90;;;16.30;99.90;;;;;;5059300;28;20221;-90
2023/07/02 04:56:48;;;;;;;22.40;13.70;;;16.30;99.90;;;;;;5059699;28;20194;-90
2023/07/02 04:59:17;;;;;;;27.73;13.77;;;16.30;99.90;;;;;;5058985;28;20201;-90
2023/07/02 05:01:44;;;;;;;27.80;14.20;;;16.40;99.90;;;;;;5058701;28;20234;-90
2023/07/02 05:04:11;;;;;;;28.00;13.00;;;16.40;95.00;;;;;;5058810;28;20175;-90
2023/07/02 05:06:37;;;;;;;24.87;13.47;;;16.50;99.90;;;;;;5058701;28;20171;-90
2023/07/02 05:09:02;;;;;;;24.00;13.70;;;16.50;99.40;;;;;;5058945;28;20586;-90
2023/07/02 05:11:28;;;;;;;31.67;13.70;;;16.50;99.90;;;;;;5058782;28;20183;-89
2023/07/02 05:13:53;;;;;;;29.30;13.87;;;16.60;96.90;;;;;;5059101;28;20179;-90
2023/07/02 05:16:19;;;;;;;25.60;13.40;;;16.50;91.00;;;;;;5075556;28;20171;-89
2023/07/02 05:18:44;;;;;;;23.90;13.50;;;16.60;75.90;;;;;;5077373;28;20299;-90
2023/07/02 05:21:10;;;;;;;27.23;14.20;;;16.70;94.20;;;;;;5065338;28;20222;-90
2023/07/02 05:23:36;;;;;;;29.90;15.03;;;16.60;88.00;;;;;;5077004;28;20186;-90
2023/07/02 05:26:02;;;;;;;26.53;13.97;;;16.60;92.50;;;;;;5071647;28;20297;-90
2023/07/02 05:28:27;;;;;;;24.37;14.17;;;16.60;62.10;;;;;;5074559;28;20193;-89
2023/07/02 05:30:53;;;;;;;25.13;14.50;;;16.60;68.00;;;;;;5075369;28;20174;-90
2023/07/02 05:33:18;;;;;;;28.40;14.27;;;16.60;83.30;;;;;;5074884;28;20182;-90
2023/07/02 05:35:45;;;;;;;25.13;14.27;;;16.70;68.70;;;;;;5065108;28;20652;-90
2023/07/02 05:38:11;;;;;;;28.57;15.43;;;16.70;60.00;;;;;;5058633;28;20214;-89
2023/07/02 05:40:37;;;;;;;27.23;14.10;;;16.70;48.70;;;;;;5059939;28;20199;-90
2023/07/02 05:43:03;;;;;;;28.33;15.63;;;16.70;16.70;;;;;;5061029;28;20258;-90
2023/07/02 05:45:28;;;;;;;31.83;14.73;;;16.70;27.30;;;;;;5058528;28;20182;-90
2023/07/02 05:47:54;;;;;;;28.20;14.67;;;16.70;21.00;;;;;;5058505;28;20225;-90
2023/07/02 05:50:20;;;;;;;28.13;15.07;;;16.80;5.10;;;;;;5058797;28;20199;-90
2023/07/02 05:52:45;;;;;;;30.83;15.03;;;16.70;12.10;;;;;;5059236;28;20244;-90
2023/07/02 05:55:11;;;;;;;30.10;16.07;;;16.80;1.00;;;;;;5076051;28;20171;-90
2023/07/02 05:57:38;;;;;;;23.63;14.00;;;16.80;1.00;;;;;;5059040;28;20178;-90
2023/07/02 06:00:07;;;;;;;27.60;14.27;;;16.80;1.00;;;;;;5058907;28;20199;-90
2023/07/02 06:02:33;;;;;;;23.33;14.63;;;16.90;1.00;;;;;;5058521;28;20209;-89
2023/07/02 06:04:59;;;;;;;26.93;14.73;;;16.90;1.00;;;;;;5058812;28;20265;-90
2023/07/02 06:07:26;;;;;;;28.67;14.80;;;17.00;1.00;;;;;;5058003;28;20186;-89
2023/07/02 06:09:51;;;;;;;27.90;14.23;;;17.30;1.00;;;;;;5057935;28;20234;-90
2023/07/02 06:12:17;;;;;;;26.63;14.73;;;17.10;1.00;;;;;;5076722;28;20182;-90
2023/07/02 06:14:43;;;;;;;24.60;13.90;;;17.10;1.00;;;;;;5058392;28;20183;-90
2023/07/02 06:17:09;;;;;;;25.93;14.00;;;17.50;1.00;;;;;;5058474;28;20187;-90
2023/07/02 06:19:36;;;;;;;24.10;13.97;;;17.20;1.00;;;;;;5058565;28;20195;-90
2023/07/02 06:22:02;;;;;;;26.97;13.70;;;17.50;1.00;;;;;;5076195;28;20205;-90
2023/07/02 06:24:27;;;;;;;31.47;14.00;;;17.30;1.00;;;;;;5058111;28;20171;-90
2023/07/02 06:26:53;;;;;;;23.57;13.07;;;17.30;1.00;;;;;;5058693;28;20173;-90
2023/07/02 06:29:18;;;;;;;27.20;13.67;;;17.30;1.00;;;;;;5057684;28;20194;-89
2023/07/02 06:31:44;;;;;;;23.47;12.73;;;17.30;1.00;;;;;;5058081;28;20179;-90
2023/07/02 06:34:09;;;;;;;23.50;12.37;;;17.30;1.00;;;;;;5057781;28;20213;-89
2023/07/02 06:36:35;;;;;;;24.73;11.70;;;17.30;1.00;;;;;;5057648;28;20183;-89
2023/07/02 06:39:01;;;;;;;24.27;12.40;;;17.40;1.00;;;;;;5057516;28;20202;-90
2023/07/02 06:41:26;;;;;;;22.13;12.00;;;17.60;1.00;;;;;;5057688;28;20198;-89
2023/07/02 06:43:52;;;;;;;26.47;12.47;;;17.30;99.90;;;;;;5057637;28;20251;-90
2023/07/02 06:46:17;;;;;;;25.37;12.30;;;17.10;99.90;;;;;;5057465;28;20644;-89
2023/07/02 06:48:43;;;;;;;26.70;13.33;;;17.50;1.00;;;;;;5057309;28;20205;-89
2023/07/02 06:51:09;;;;;;;27.67;13.70;;;17.60;1.00;;;;;;5075367;28;20671;-90
2023/07/02 06:53:36;;;;;;;26.27;12.70;;;17.70;1.00;;;;;;5057507;28;20221;-90
2023/07/02 06:56:02;;;;;;;26.37;14.10;;;17.70;1.00;;;;;;5057502;28;20349;-90
2023/07/02 06:58:27;;;;;;;24.00;12.70;;;17.80;1.00;;;;;;5058207;28;20606;-89
2023/07/02 07:00:53;;;;;;;24.37;13.03;;;17.80;99.90;;;;;;5057922;28;20183;-90
2023/07/02 07:03:19;;;;;;;22.07;12.43;;;17.80;1.00;;;;;;5057343;28;20179;-90
2023/07/02 07:05:44;;;;;;;27.43;13.20;;;17.80;1.00;;;;;;5057379;28;20211;-90
2023/07/02 07:08:10;;;;;;;23.40;12.10;;;17.80;99.90;;;;;;5074985;28;20175;-90
2023/07/02 07:10:35;;;;;;;28.23;12.90;;;17.90;99.90;;;;;;5056752;28;20191;-89
2023/07/02 07:13:02;;;;;;;23.53;12.40;;;17.90;99.90;;;;;;5057078;28;20328;-89
2023/07/02 07:15:32;;;;;;;22.17;11.87;;;18.00;99.90;;;;;;5055941;28;20179;-90
2023/07/02 07:17:57;;;;;;;23.27;10.23;;;18.00;99.90;;;;;;5056346;28;20235;-90
2023/07/02 07:20:23;;;;;;;21.40;9.60;;;18.10;99.90;;;;;;5055419;28;20312;-90
2023/07/02 07:22:49;;;;;;;17.33;9.37;;;18.00;99.90;;;;;;5073901;28;20186;-90
2023/07/02 07:25:14;;;;;;;18.00;9.43;;;18.00;99.90;;;;;;5055799;28;20167;-90
2023/07/02 07:27:40;;;;;;;22.23;10.47;;;18.00;99.90;;;;;;5055894;28;20186;-90
2023/07/02 07:30:06;;;;;;;19.47;9.67;;;18.30;99.90;;;;;;5055700;28;20613;-90
2023/07/02 07:32:32;;;;;;;22.20;10.60;;;18.20;99.90;;;;;;5055745;28;20191;-90
2023/07/02 07:34:57;;;;;;;24.87;9.80;;;18.30;43.20;;;;;;5055383;28;20182;-90
2023/07/02 07:37:25;;;;;;;25.80;10.37;;;18.40;20.40;;;;;;5074666;28;20549;-90
2023/07/02 07:39:50;;;;;;;15.93;9.50;;;18.50;99.90;;;;;;5055751;28;20222;-90
2023/07/02 07:42:16;;;;;;;16.37;9.70;;;19.00;2.40;;;;;;5055981;28;20249;-90
2023/07/02 07:44:42;;;;;;;19.83;9.70;;;18.70;1.00;;;;;;5055990;28;20179;-90
2023/07/02 07:47:08;;;;;;;20.27;9.33;;;18.60;1.00;;;;;;5074529;28;20200;-90
2023/07/02 07:49:33;;;;;;;18.07;9.27;;;18.60;1.00;;;;;;5056471;28;20198;-90
2023/07/02 07:51:59;;;;;;;20.77;9.90;;;18.60;1.00;;;;;;5055666;28;20189;-90
2023/07/02 07:54:24;;;;;;;20.77;9.73;;;18.70;1.00;;;;;;5056216;28;20214;-89
2023/07/02 07:56:50;;;;;;;20.90;8.70;;;19.40;1.00;;;;;;5074629;28;20174;-89
2023/07/02 07:59:16;;;;;;;14.97;8.17;;;18.70;1.00;;;;;;5055915;28;20276;-90
2023/07/02 08:01:41;;;;;;;25.17;8.93;;;18.80;1.00;;;;;;5056093;28;20199;-90
2023/07/02 08:04:07;;;;;;;18.23;8.30;;;18.80;1.00;;;;;;5055475;28;20163;-90
2023/07/02 08:06:32;;;;;;;21.80;8.73;;;18.70;1.00;;;;;;5056884;28;20178;-89
2023/07/02 08:08:58;;;;;;;17.37;8.07;;;18.60;1.00;;;;;;5056069;28;20231;-89
2023/07/02 08:11:23;;;;;;;19.77;8.20;;;18.70;1.00;;;;;;5075645;28;20545;-90
2023/07/02 08:13:49;;;;;;;21.70;8.57;;;18.70;1.00;;;;;;5074302;28;20201;-90
2023/07/02 08:16:15;;;;;;;13.10;7.10;;;18.90;1.00;;;;;;5056611;28;20174;-89
2023/07/02 08:18:40;;;;;;;17.97;8.13;;;18.60;1.00;;;;;;5055838;28;20221;-90
2023/07/02 08:21:06;;;;;;;15.90;7.03;;;18.70;1.00;;;;;;5075322;28;20195;-89
2023/07/02 08:23:32;;;;;;;13.93;7.27;;;18.90;1.00;;;;;;5066850;28;20181;-89
2023/07/02 08:25:58;;;;;;;16.57;7.27;;;18.80;1.00;;;;;;5078258;28;20167;-90
2023/07/02 08:28:23;;;;;;;17.07;7.70;;;18.60;1.00;;;;;;5093903;28;20197;-90
2023/07/02 08:30:49;;;;;;;17.37;7.00;;;18.70;1.00;;;;;;5073198;28;20196;-90
2023/07/02 08:33:15;;;;;;;14.40;7.60;;;18.80;1.00;;;;;;5072618;28;20222;-90
2023/07/02 08:35:41;;;;;;;18.10;7.43;;;18.80;1.00;;;;;;5071719;28;20175;-90
2023/07/02 08:38:08;;;;;;;16.03;7.97;;;18.80;1.00;;;;;;5071491;28;20182;-90
2023/07/02 08:40:33;;;;;;;17.47;7.00;;;18.90;1.00;;;;;;5056630;28;20191;-90
2023/07/02 08:42:59;;;;;;;18.30;7.23;;;19.10;1.00;;;;;;5056802;28;20199;-90
2023/07/02 08:45:25;;;;;;;15.13;7.17;;;19.10;1.00;;;;;;5056965;28;20183;-90
2023/07/02 08:47:53;;;;;;;9.97;6.13;;;19.00;99.90;;;;;;5055256;28;20167;-90
2023/07/02 08:50:19;;;;;;;19.90;8.13;;;18.80;99.90;;;;;;5055737;28;20191;-90
2023/07/02 08:52:45;;;;;;;14.77;6.70;;;18.90;99.90;;;;;;5059197;28;20184;-90
2023/07/02 08:55:10;;;;;;;13.23;6.70;;;19.20;1.00;;;;;;5059409;28;20183;-90
2023/07/02 08:57:36;;;;;;;14.43;6.67;;;18.90;99.90;;;;;;5059515;28;20187;-90
2023/07/02 09:00:09;;;;;;;13.27;6.70;;;18.80;1.00;;;;;;5059635;28;20548;-90
2023/07/02 09:02:35;;;;;;;16.53;7.70;;;18.80;1.00;;;;;;5077416;28;20226;-90
2023/07/02 09:05:01;;;;;;;14.63;7.13;;;18.80;1.00;;;;;;5059150;28;20178;-90
2023/07/02 09:07:27;;;;;;;11.93;6.30;;;18.70;1.00;;;;;;5058597;28;20262;-90
2023/07/02 09:09:53;;;;;;;14.00;7.63;;;18.80;1.00;;;;;;5059242;28;20608;-90
2023/07/02 09:12:28;;;;;;;18.57;7.17;;;18.90;1.00;;;;;;5059356;28;20186;-90
2023/07/02 09:15:03;;;;;;;16.87;8.37;;;19.00;1.00;;;;;;5059441;28;20631;-90
2023/07/02 09:17:36;;;;;;;17.87;7.90;;;19.20;1.00;;;;;;5059844;28;20694;-91
2023/07/02 09:20:07;;;;;;;16.97;8.10;;;19.20;1.00;;;;;;5059799;28;20209;-91
2023/07/02 09:22:33;;;;;;;14.77;7.07;;;19.20;1.00;;;;;;5060413;28;20199;-90
2023/07/02 09:25:00;;;;;;;17.00;7.90;;;19.30;1.00;;;;;;5058832;28;20660;-90
2023/07/02 09:27:40;;;;;;;16.20;7.43;;;19.40;1.00;;;;;;5058643;28;20185;-90
2023/07/02 09:30:15;;;;;;;17.87;8.20;;;19.50;1.00;;;;;;5058592;28;20213;-91
2023/07/02 09:32:44;;;;;;;18.83;9.17;;;19.60;1.00;;;;;;5057987;28;20167;-92
2023/07/02 09:35:10;;;;;;;15.53;7.63;;;19.70;1.00;;;;;;5077329;28;20167;-90
2023/07/02 09:37:36;;;;;;;18.90;8.00;;;19.90;1.00;;;;;;5058932;28;20698;-90
2023/07/02 09:40:06;;;;;;;13.33;7.70;;;19.60;1.00;;;;;;5059221;28;20218;-91
2023/07/02 09:42:33;;;;;;;18.27;7.80;;;19.70;1.00;;;;;;5058793;28;20256;-90
2023/07/02 09:44:59;;;;;;;15.20;7.67;;;20.00;1.00;;;;;;5057930;28;20202;-89
2023/07/02 09:47:26;;;;;;;18.47;7.93;;;19.60;1.00;;;;;;5059239;28;20180;-91
2023/07/02 09:49:53;;;;;;;17.10;8.03;;;19.50;1.00;;;;;;5075672;28;20244;-90
2023/07/02 09:52:20;;;;;;;19.27;8.47;;;19.30;1.00;;;;;;5058463;28;20735;-91
2023/07/02 09:54:46;;;;;;;15.40;8.10;;;19.50;1.00;;;;;;5076042;28;20198;-90
2023/07/02 09:57:12;;;;;;;14.70;8.27;;;19.20;1.00;;;;;;5076564;28;20178;-90
2023/07/02 09:59:39;;;;;;;18.97;7.87;;;19.90;1.00;;;;;;5058272;28;20195;-90
2023/07/02 10:02:05;;;;;;;15.00;7.00;;;19.10;1.00;;;;;;5057816;28;20211;-90
2023/07/02 10:04:43;;;;;;;18.60;6.83;;;19.00;1.00;;;;;;5057346;28;20175;-90
2023/07/02 10:07:09;;;;;;;12.83;6.53;;;19.00;1.00;;;;;;5057921;28;20719;-90
2023/07/02 10:09:40;;;;;;;12.90;6.67;;;19.10;1.00;;;;;;5057945;28;20244;-90
2023/07/02 10:12:20;;;;;;;17.47;6.83;;;19.10;1.00;;;;;;5057480;28;20182;-89
2023/07/02 10:14:46;;;;;;;21.10;8.60;;;19.00;1.00;;;;;;5058468;28;20234;-90
2023/07/02 10:17:28;;;;;;;16.47;7.90;;;19.10;1.00;;;;;;5057788;28;20198;-90
2023/07/02 10:19:55;;;;;;;14.83;8.00;;;19.30;1.00;;;;;;5058343;28;20566;-90
2023/07/02 10:22:21;;;;;;;11.57;7.00;;;19.50;1.00;;;;;;5076598;28;20660;-89
2023/07/02 10:25:03;;;;;;;13.33;6.53;;;19.60;99.90;;;;;;5077086;28;20183;-90
2023/07/02 10:27:42;;;;;;;15.70;6.77;;;19.70;99.90;;;;;;5075102;28;20148;-90
2023/07/02 10:30:10;;;;;;;12.70;6.60;;;19.80;99.90;;;;;;5057702;28;20218;-90
2023/07/02 10:32:37;;;;;;;15.30;6.17;;;19.70;74.60;;;;;;5059537;28;20265;-90
2023/07/02 10:35:25;;;;;;;13.23;6.27;;;19.60;99.90;;;;;;5057898;28;20591;-90
2023/07/02 10:37:51;;;;;;;13.10;6.07;;;19.50;11.60;;;;;;5057711;28;20190;-90
2023/07/02 10:40:16;;;;;;;17.17;6.83;;;19.60;16.80;;;;;;5057501;28;20291;-90
2023/07/02 10:42:52;;;;;;;11.97;5.90;;;19.50;99.90;;;;;;5056833;28;20664;-90
2023/07/02 10:45:19;;;;;;;19.90;7.10;;;19.50;99.90;;;;;;5057591;28;20204;-90
2023/07/02 10:47:46;;;;;;;12.30;5.90;;;19.60;91.60;;;;;;5058183;28;20179;-90
2023/07/02 10:50:21;;;;;;;11.47;5.93;;;19.70;99.90;;;;;;5056529;28;20259;-90
2023/07/02 10:52:47;;;;;;;12.50;6.10;;;19.80;99.90;;;;;;5057120;28;20583;-90
2023/07/02 10:55:24;;;;;;;16.60;6.10;;;20.00;1.00;;;;;;5056955;28;20171;-91
2023/07/02 10:58:01;;;;;;;15.83;6.43;;;20.00;92.80;;;;;;5056936;28;20269;-90
2023/07/02 11:00:27;;;;;;;10.93;5.80;;;20.00;99.90;;;;;;5075421;28;20191;-90
2023/07/02 11:02:52;;;;;;;10.20;5.37;;;20.00;99.90;;;;;;5056212;28;20210;-90
2023/07/02 11:05:18;;;;;;;12.20;6.20;;;19.90;99.90;;;;;;5057150;28;20178;-90
2023/07/02 11:07:44;;;;;;;12.30;5.57;;;20.20;99.90;;;;;;5057458;28;20528;-90
2023/07/02 11:10:17;;;;;;;13.07;5.30;;;20.30;99.90;;;;;;5056821;28;20201;-90
2023/07/02 11:12:42;;;;;;;14.33;6.30;;;20.60;99.90;;;;;;5056334;28;20656;-90
2023/07/02 11:15:13;;;;;;;9.83;5.33;;;20.50;44.00;;;;;;5056262;28;20179;-90
2023/07/02 11:17:42;;;;;;;10.20;5.73;;;20.50;99.90;;;;;;5056899;28;20669;-90
2023/07/02 11:20:09;;;;;;;10.83;5.80;;;21.90;99.90;;;;;;5057227;28;20220;-90
2023/07/02 11:22:36;;;;;;;13.43;6.10;;;20.80;99.90;;;;;;5056163;28;20209;-90
2023/07/02 11:25:20;;;;;;;15.80;6.43;;;20.80;1.00;;;;;;5056646;28;20171;-90
2023/07/02 11:27:45;;;;;;;10.80;4.80;;;20.60;1.00;;;;;;5056625;28;20170;-90
2023/07/02 11:30:12;;;;;;;10.57;5.53;;;20.60;1.00;;;;;;5056237;28;20203;-90
2023/07/02 11:32:51;;;;;;;15.87;5.63;;;20.80;1.00;;;;;;5073894;28;20175;-89
2023/07/02 11:35:17;;;;;;;17.33;6.00;;;20.90;1.00;;;;;;5056591;28;20257;-90
2023/07/02 11:37:44;;;;;;;12.43;5.37;;;21.10;1.00;;;;;;5073854;28;20206;-88
2023/07/02 11:40:10;;;;;;;13.43;5.53;;;21.10;99.90;;;;;;5056254;28;20268;-90
2023/07/02 11:42:36;;;;;;;12.67;5.43;;;21.10;1.00;;;;;;5056993;28;20289;-90
2023/07/02 11:45:02;;;;;;;12.03;5.50;;;21.10;55.30;;;;;;5055718;28;20213;-90
2023/07/02 11:47:27;;;;;;;10.87;5.57;;;21.00;99.90;;;;;;5055966;28;20707;-90
2023/07/02 11:49:54;;;;;;;11.30;6.07;;;21.20;99.90;;;;;;5055685;28;20687;-90
2023/07/02 11:52:21;;;;;;;11.03;6.20;;;21.00;1.00;;;;;;5055931;28;20179;-90
2023/07/02 11:54:47;;;;;;;11.03;5.83;;;21.20;1.00;;;;;;5056685;28;20185;-90
2023/07/02 11:57:12;;;;;;;12.77;5.63;;;21.20;1.00;;;;;;5055814;28;20261;-90
2023/07/02 11:59:38;;;;;;;12.13;5.93;;;21.80;99.90;;;;;;5055484;28;20207;-90
2023/07/02 12:02:04;;;;;;;12.13;6.03;;;21.10;99.90;;;;;;5073704;28;20197;-90
2023/07/02 12:04:30;;;;;;;16.33;5.83;;;21.20;99.90;;;;;;5056345;28;20175;-89
2023/07/02 12:06:55;;;;;;;16.10;6.20;;;21.40;99.90;;;;;;5074099;28;20197;-90
2023/07/02 12:09:21;;;;;;;13.43;6.20;;;21.40;99.90;;;;;;5056130;28;20248;-91
2023/07/02 12:11:46;;;;;;;11.70;5.77;;;21.60;99.90;;;;;;5073910;28;20518;-90
2023/07/02 12:14:12;;;;;;;12.87;5.83;;;21.60;1.00;;;;;;5056422;28;20179;-91
2023/07/02 12:16:38;;;;;;;14.90;6.73;;;21.50;99.90;;;;;;5055365;28;20522;-90
2023/07/02 12:19:03;;;;;;;16.87;6.60;;;21.30;99.90;;;;;;5056164;28;20194;-91
2023/07/02 12:21:29;;;;;;;16.00;6.07;;;21.10;99.90;;;;;;5055814;28;20198;-90
2023/07/02 12:23:54;;;;;;;12.47;6.20;;;21.40;1.00;;;;;;5056486;28;20163;-91
2023/07/02 12:26:20;;;;;;;12.07;7.00;;;21.20;1.00;;;;;;5057313;28;20171;-90
2023/07/02 12:28:46;;;;;;;14.47;6.60;;;21.20;1.00;;;;;;5060501;28;20220;-90
2023/07/02 12:31:12;;;;;;;13.17;6.50;;;21.10;1.00;;;;;;5059972;28;20179;-90
2023/07/02 12:33:38;;;;;;;11.47;6.53;;;21.30;1.00;;;;;;5077176;28;20597;-90
2023/07/02 12:36:04;;;;;;;11.07;6.33;;;21.10;1.00;;;;;;5060310;28;20198;-90